Time;durP1;ratioP1;P1;durP2;ratioP2;P2;SDS_P1;SDS_P2;PMS_P1;PMS_P2;Temp;Humidity;BMP_temperature;BMP_pressure;BME280_temperature;BME280_humidity;BME280_pressure;Samples;Min_cycle;Max_cycle;Signal;HPM_P1;HPM_P2
2023/11/26 00:00:17;;;;;;;23.40;14.38;;;2.40;55.50;;;;;;5029437;28;20033;-75
2023/11/26 00:02:44;;;;;;;22.80;13.43;;;2.30;55.30;;;;;;5009082;28;20036;-74
2023/11/26 00:05:10;;;;;;;19.52;12.27;;;2.30;55.40;;;;;;5014846;28;20056;-76
2023/11/26 00:07:36;;;;;;;18.95;11.20;;;2.30;55.40;;;;;;5037087;28;20381;-76
2023/11/26 00:10:02;;;;;;;16.15;10.85;;;2.30;55.40;;;;;;5035644;28;20056;-75
2023/11/26 00:12:28;;;;;;;17.88;11.20;;;2.30;55.40;;;;;;5017013;28;20034;-75
2023/11/26 00:14:54;;;;;;;14.68;10.00;;;2.30;55.40;;;;;;5020989;28;20512;-76
2023/11/26 00:17:20;;;;;;;14.57;8.82;;;2.40;55.60;;;;;;5024650;28;20037;-76
2023/11/26 00:19:46;;;;;;;13.88;9.10;;;2.30;55.50;;;;;;5019798;28;20311;-75
2023/11/26 00:22:12;;;;;;;12.85;8.15;;;2.30;55.50;;;;;;5024823;28;20029;-75
2023/11/26 00:24:38;;;;;;;15.25;9.57;;;2.30;55.50;;;;;;5020321;28;20094;-75
2023/11/26 00:27:04;;;;;;;14.60;9.35;;;2.30;55.50;;;;;;5027053;28;20087;-75
2023/11/26 00:29:40;;;;;;;13.35;8.63;;;2.30;55.50;;;;;;5021430;28;20480;-76
2023/11/26 00:32:07;;;;;;;13.80;9.77;;;2.30;55.50;;;;;;5023744;28;20548;-76
2023/11/26 00:34:34;;;;;;;15.23;8.43;;;2.30;56.10;;;;;;5032305;28;20644;-75
2023/11/26 00:37:00;;;;;;;13.88;8.45;;;2.30;55.60;;;;;;5022347;28;20465;-73
2023/11/26 00:39:26;;;;;;;14.55;9.30;;;2.30;55.60;;;;;;5020987;28;20052;-75
2023/11/26 00:41:53;;;;;;;12.30;8.13;;;2.30;55.60;;;;;;5018631;28;20061;-75
2023/11/26 00:44:23;;;;;;;9.88;7.50;;;2.30;55.60;;;;;;5016627;28;20065;-75
2023/11/26 00:46:49;;;;;;;11.75;7.75;;;2.30;55.60;;;;;;5050510;28;20071;-75
2023/11/26 00:49:14;;;;;;;9.38;6.60;;;2.30;55.60;;;;;;5018001;28;20556;-76
2023/11/26 00:51:40;;;;;;;9.82;6.60;;;2.30;55.60;;;;;;5017775;28;20489;-76
2023/11/26 00:54:06;;;;;;;10.73;6.63;;;2.30;55.60;;;;;;5031145;28;20029;-75
2023/11/26 00:56:32;;;;;;;10.45;6.22;;;2.30;55.60;;;;;;5028010;28;20538;-76
2023/11/26 00:58:58;;;;;;;10.27;6.32;;;2.30;55.70;;;;;;5028935;28;20774;-75
2023/11/26 01:01:24;;;;;;;8.45;5.80;;;2.30;55.60;;;;;;5023610;28;20046;-75
2023/11/26 01:03:50;;;;;;;8.25;5.75;;;2.30;55.70;;;;;;5013541;28;20033;-75
2023/11/26 01:06:17;;;;;;;9.70;5.03;;;2.30;55.70;;;;;;5012404;28;20509;-74
2023/11/26 01:08:43;;;;;;;7.82;5.38;;;2.30;55.70;;;;;;5015114;28;20103;-74
2023/11/26 01:11:12;;;;;;;9.65;5.65;;;2.30;55.70;;;;;;4997000;28;20528;-74
2023/11/26 01:13:38;;;;;;;7.20;5.20;;;2.40;55.90;;;;;;5017182;28;20029;-75
2023/11/26 01:16:05;;;;;;;10.77;6.05;;;2.40;56.00;;;;;;5020785;28;20522;-74
2023/11/26 01:18:31;;;;;;;6.78;5.20;;;2.40;56.00;;;;;;5017041;28;20041;-75
2023/11/26 01:20:57;;;;;;;8.85;5.00;;;2.30;55.80;;;;;;5023955;28;20501;-75
2023/11/26 01:23:23;;;;;;;5.10;4.28;;;2.40;56.00;;;;;;5023114;28;20033;-75
2023/11/26 01:25:49;;;;;;;9.60;5.05;;;2.30;55.80;;;;;;5023783;28;20054;-75
2023/11/26 01:28:15;;;;;;;7.97;5.28;;;2.30;55.80;;;;;;5014877;28;20052;-75
2023/11/26 01:30:42;;;;;;;7.43;4.75;;;2.40;56.00;;;;;;5014413;28;20040;-76
2023/11/26 01:33:09;;;;;;;7.30;5.05;;;2.40;56.00;;;;;;5022898;28;20825;-75
2023/11/26 01:35:35;;;;;;;8.20;4.90;;;2.40;56.00;;;;;;5021015;28;20040;-75
2023/11/26 01:38:01;;;;;;;6.43;5.05;;;2.40;56.00;;;;;;5019287;28;20366;-76
2023/11/26 01:40:27;;;;;;;7.07;5.20;;;2.40;56.00;;;;;;5028217;28;20049;-76
2023/11/26 01:42:53;;;;;;;8.23;5.03;;;2.40;56.00;;;;;;5023012;28;20176;-76
2023/11/26 01:45:23;;;;;;;8.55;6.10;;;2.40;56.00;;;;;;5023944;28;20399;-77
2023/11/26 01:47:49;;;;;;;7.25;5.20;;;2.40;56.10;;;;;;5016293;28;20030;-75
2023/11/26 01:50:24;;;;;;;7.63;5.70;;;2.40;56.10;;;;;;5013145;28;20034;-77
2023/11/26 01:52:52;;;;;;;6.72;5.38;;;2.40;56.10;;;;;;5033889;28;20030;-76
2023/11/26 01:55:19;;;;;;;7.90;5.63;;;2.40;56.10;;;;;;5018422;28;20551;-75
2023/11/26 01:57:45;;;;;;;7.35;5.38;;;2.50;56.30;;;;;;5026721;28;20040;-75
2023/11/26 02:00:14;;;;;;;10.02;6.28;;;2.50;56.30;;;;;;5017149;28;20086;-75
2023/11/26 02:02:40;;;;;;;8.75;6.15;;;2.50;56.30;;;;;;5029645;28;20389;-76
2023/11/26 02:05:11;;;;;;;7.57;6.25;;;2.50;56.30;;;;;;5021785;28;20029;-76
2023/11/26 02:07:39;;;;;;;7.57;5.97;;;2.50;56.30;;;;;;5019558;28;20037;-76
2023/11/26 02:10:09;;;;;;;7.68;5.93;;;2.50;56.30;;;;;;5020692;28;20055;-76
2023/11/26 02:12:35;;;;;;;9.05;6.38;;;2.50;56.30;;;;;;5032266;28;20427;-76
2023/11/26 02:15:03;;;;;;;9.68;6.03;;;2.60;56.50;;;;;;5002781;28;20136;-76
2023/11/26 02:17:30;;;;;;;7.13;5.75;;;2.60;56.50;;;;;;5022117;28;20065;-76
2023/11/26 02:20:01;;;;;;;8.27;5.75;;;2.60;56.50;;;;;;5002784;28;20112;-76
2023/11/26 02:22:28;;;;;;;8.43;6.40;;;2.60;56.50;;;;;;5030047;28;20496;-76
2023/11/26 02:24:55;;;;;;;9.70;6.50;;;2.60;56.50;;;;;;5008775;28;20469;-75
2023/11/26 02:27:21;;;;;;;8.98;6.25;;;2.60;56.50;;;;;;5021974;28;20036;-75
2023/11/26 02:29:51;;;;;;;9.98;6.15;;;2.70;56.70;;;;;;5029810;28;20048;-76
2023/11/26 02:32:17;;;;;;;9.18;6.40;;;2.70;56.70;;;;;;5020574;28;20557;-76
2023/11/26 02:34:43;;;;;;;9.30;6.43;;;2.70;56.70;;;;;;5018463;28;20025;-76
2023/11/26 02:37:09;;;;;;;9.60;6.65;;;2.70;56.70;;;;;;5032532;28;20036;-76
2023/11/26 02:39:35;;;;;;;9.95;6.32;;;2.70;56.70;;;;;;5022139;28;20445;-76
2023/11/26 02:42:01;;;;;;;11.35;6.13;;;2.70;56.70;;;;;;5026520;28;20132;-76
2023/11/26 02:44:27;;;;;;;10.05;7.45;;;2.80;56.90;;;;;;5025329;28;20030;-76
2023/11/26 02:46:53;;;;;;;7.82;6.68;;;2.80;56.90;;;;;;5035614;28;20033;-77
2023/11/26 02:49:19;;;;;;;8.68;7.60;;;2.80;57.00;;;;;;5021873;28;20711;-76
2023/11/26 02:51:45;;;;;;;14.50;8.68;;;2.80;57.00;;;;;;5018379;28;20124;-77
2023/11/26 02:54:11;;;;;;;11.13;8.13;;;2.80;57.00;;;;;;5027483;28;20121;-77
2023/11/26 02:56:42;;;;;;;15.23;8.05;;;2.90;57.20;;;;;;5030311;28;20029;-76
2023/11/26 02:59:10;;;;;;;12.70;8.55;;;2.80;57.00;;;;;;5029521;28;20041;-76
2023/11/26 03:01:36;;;;;;;15.75;9.00;;;2.90;57.20;;;;;;5059731;28;20836;-78
2023/11/26 03:04:04;;;;;;;12.32;7.82;;;2.90;57.20;;;;;;5028076;28;20036;-77
2023/11/26 03:06:31;;;;;;;11.88;8.50;;;2.90;57.20;;;;;;5027326;28;20029;-77
2023/11/26 03:09:00;;;;;;;12.07;8.60;;;2.90;57.30;;;;;;5025462;28;20092;-77
2023/11/26 03:14:13;;;;;;;12.55;8.82;;;2.90;57.30;;;;;;5020663;28;20416;-76
2023/11/26 03:16:39;;;;;;;14.10;9.00;;;2.90;57.30;;;;;;5036120;28;20075;-77
2023/11/26 03:19:08;;;;;;;14.27;9.43;;;3.00;57.50;;;;;;5022448;28;20034;-77
2023/11/26 03:21:36;;;;;;;12.93;9.38;;;3.00;57.50;;;;;;5064280;28;20306;-77
2023/11/26 03:24:04;;;;;;;13.40;9.35;;;3.00;57.50;;;;;;5027822;28;20028;-76
2023/11/26 03:26:30;;;;;;;12.40;9.13;;;3.00;57.50;;;;;;5032714;28;20195;-77
2023/11/26 03:28:56;;;;;;;14.27;10.23;;;3.10;57.80;;;;;;5033419;28;20135;-77
2023/11/26 03:31:24;;;;;;;13.43;9.73;;;3.00;57.60;;;;;;5026278;28;20032;-77
2023/11/26 03:33:52;;;;;;;12.88;9.50;;;3.10;57.80;;;;;;5056953;28;20037;-76
2023/11/26 03:36:18;;;;;;;15.00;10.10;;;3.10;57.80;;;;;;5033729;28;20026;-77
2023/11/26 03:38:44;;;;;;;10.95;9.00;;;3.10;57.80;;;;;;5057347;28;20021;-76
2023/11/26 03:41:11;;;;;;;10.95;9.15;;;3.10;57.80;;;;;;5026140;28;20133;-77
2023/11/26 03:43:37;;;;;;;11.68;8.05;;;3.10;57.80;;;;;;5030672;28;20497;-76
2023/11/26 03:46:06;;;;;;;10.43;8.45;;;3.10;57.80;;;;;;5039646;28;20126;-76
2023/11/26 03:48:33;;;;;;;10.45;7.80;;;3.10;57.90;;;;;;5023245;28;20136;-76
2023/11/26 03:50:59;;;;;;;9.40;7.63;;;3.20;58.10;;;;;;5022431;28;20052;-76
2023/11/26 03:53:25;;;;;;;8.63;6.63;;;3.20;58.60;;;;;;5027008;28;20198;-76
2023/11/26 03:55:52;;;;;;;10.40;7.38;;;3.20;58.10;;;;;;5022373;28;20056;-76
2023/11/26 03:58:18;;;;;;;12.90;7.10;;;3.20;58.10;;;;;;5021269;28;20470;-76
2023/11/26 04:00:44;;;;;;;8.40;6.63;;;3.20;58.10;;;;;;5022656;28;20037;-75
2023/11/26 04:03:10;;;;;;;8.80;6.88;;;3.20;58.10;;;;;;5024747;28;20025;-75
2023/11/26 04:05:36;;;;;;;8.90;6.45;;;3.30;58.40;;;;;;5011156;28;20195;-75
2023/11/26 04:08:02;;;;;;;11.13;6.45;;;3.30;58.40;;;;;;5039289;28;20156;-76
2023/11/26 04:10:28;;;;;;;8.20;6.45;;;3.30;58.40;;;;;;5020139;28;20038;-76
2023/11/26 04:12:54;;;;;;;13.35;6.90;;;3.30;58.50;;;;;;5018684;28;20033;-76
2023/11/26 04:15:22;;;;;;;9.23;6.25;;;3.30;58.50;;;;;;5016220;28;20079;-76
2023/11/26 04:17:49;;;;;;;9.35;6.00;;;3.40;58.60;;;;;;5037391;28;20033;-75
2023/11/26 04:20:15;;;;;;;6.95;5.82;;;3.40;58.70;;;;;;5026473;28;20365;-76
2023/11/26 04:22:41;;;;;;;7.72;5.80;;;3.40;58.60;;;;;;5035633;28;20087;-75
2023/11/26 04:25:09;;;;;;;7.82;5.30;;;3.40;58.70;;;;;;5015871;28;20133;-77
2023/11/26 04:27:35;;;;;;;7.25;5.43;;;3.40;58.70;;;;;;5020129;28;20037;-76
2023/11/26 04:30:04;;;;;;;8.32;4.88;;;3.40;58.70;;;;;;5021143;28;20524;-74
2023/11/26 04:32:30;;;;;;;6.93;4.88;;;3.50;58.90;;;;;;5021987;28;20405;-77
2023/11/26 04:34:57;;;;;;;8.63;5.65;;;3.50;58.90;;;;;;5021702;28;20124;-74
2023/11/26 04:37:23;;;;;;;7.32;4.78;;;3.50;58.90;;;;;;5023447;28;20108;-76
2023/11/26 04:39:49;;;;;;;7.22;4.93;;;3.50;59.00;;;;;;5020860;28;20036;-75
2023/11/26 04:42:17;;;;;;;6.35;4.45;;;3.50;59.00;;;;;;5020842;28;20374;-76
2023/11/26 04:44:44;;;;;;;6.05;3.92;;;3.50;59.00;;;;;;5015578;28;20481;-76
2023/11/26 04:47:10;;;;;;;8.43;4.43;;;3.60;59.20;;;;;;5019598;28;20036;-75
2023/11/26 04:49:37;;;;;;;7.50;5.15;;;3.60;59.20;;;;;;5030346;28;20501;-75
2023/11/26 04:52:03;;;;;;;8.77;5.25;;;3.60;59.20;;;;;;5023095;28;20071;-75
2023/11/26 04:54:29;;;;;;;8.15;5.63;;;3.70;59.40;;;;;;5016109;28;20034;-76
2023/11/26 04:56:56;;;;;;;7.15;5.43;;;3.70;59.40;;;;;;5023119;28;20460;-75
2023/11/26 04:59:23;;;;;;;8.73;5.65;;;3.70;59.40;;;;;;5020620;28;20156;-75
2023/11/26 05:01:54;;;;;;;8.43;5.57;;;3.70;59.40;;;;;;5024787;28;20037;-75
2023/11/26 05:04:20;;;;;;;9.57;5.55;;;3.70;59.40;;;;;;5017127;28;20544;-76
2023/11/26 05:06:46;;;;;;;7.30;5.82;;;3.80;59.60;;;;;;5027678;28;20061;-75
2023/11/26 05:09:12;;;;;;;9.90;6.55;;;3.80;59.60;;;;;;5016084;28;20450;-75
2023/11/26 05:11:41;;;;;;;11.10;6.43;;;3.80;59.60;;;;;;5028878;28;20061;-75
2023/11/26 05:14:07;;;;;;;10.98;6.78;;;3.80;59.60;;;;;;5039141;28;20040;-75
2023/11/26 05:16:33;;;;;;;9.85;6.35;;;3.80;59.60;;;;;;5023957;28;20029;-75
2023/11/26 05:18:59;;;;;;;9.48;7.00;;;3.80;59.60;;;;;;5018501;28;20627;-75
2023/11/26 05:21:25;;;;;;;10.00;7.10;;;3.90;59.80;;;;;;5021359;28;20033;-76
2023/11/26 05:23:51;;;;;;;12.05;7.20;;;3.90;59.70;;;;;;5038882;28;20026;-76
2023/11/26 05:26:17;;;;;;;11.38;7.68;;;3.90;59.80;;;;;;5025227;28;20049;-76
2023/11/26 05:28:43;;;;;;;9.98;7.70;;;3.90;59.80;;;;;;5022564;28;20340;-74
2023/11/26 05:31:11;;;;;;;9.23;7.47;;;3.90;59.70;;;;;;5022005;28;20029;-75
2023/11/26 05:33:38;;;;;;;9.43;7.82;;;3.90;59.70;;;;;;5027752;28;20021;-76
2023/11/26 05:36:05;;;;;;;10.85;7.88;;;4.00;59.90;;;;;;5019787;28;20083;-74
2023/11/26 05:38:31;;;;;;;15.18;8.57;;;4.00;59.90;;;;;;5025260;28;20029;-77
2023/11/26 05:40:58;;;;;;;10.35;7.25;;;4.00;59.90;;;;;;5022227;28;20051;-75
2023/11/26 05:43:25;;;;;;;10.20;7.03;;;4.00;60.00;;;;;;5020295;28;20036;-74
2023/11/26 05:45:52;;;;;;;8.20;6.35;;;4.00;59.90;;;;;;5029003;28;20037;-74
2023/11/26 05:48:18;;;;;;;11.85;7.03;;;4.00;59.90;;;;;;5028443;28;20061;-75
2023/11/26 05:50:44;;;;;;;10.50;6.38;;;4.00;60.00;;;;;;5022083;28;20167;-75
2023/11/26 05:53:11;;;;;;;7.28;5.82;;;4.10;60.10;;;;;;5035453;28;20017;-74
2023/11/26 05:55:38;;;;;;;9.65;6.00;;;4.10;60.10;;;;;;5019359;28;20418;-76
2023/11/26 05:58:04;;;;;;;7.45;5.65;;;4.10;60.10;;;;;;5027585;28;20025;-76
2023/11/26 06:00:30;;;;;;;9.10;6.13;;;4.10;60.10;;;;;;5052426;28;20025;-76
2023/11/26 06:02:56;;;;;;;7.63;5.97;;;4.10;60.10;;;;;;5040634;28;20052;-75
2023/11/26 06:05:22;;;;;;;17.15;7.20;;;4.20;60.30;;;;;;5018001;28;20026;-75
2023/11/26 06:07:49;;;;;;;10.35;6.65;;;4.20;60.30;;;;;;5023927;28;20417;-76
2023/11/26 06:10:15;;;;;;;9.88;6.78;;;4.20;60.30;;;;;;5029098;28;20295;-75
2023/11/26 06:12:41;;;;;;;12.43;7.70;;;4.20;60.30;;;;;;5022751;28;20088;-75
2023/11/26 06:15:08;;;;;;;10.30;6.55;;;4.20;60.30;;;;;;5027069;28;20034;-76
2023/11/26 06:17:34;;;;;;;9.00;6.70;;;4.30;60.40;;;;;;5028327;28;20473;-76
2023/11/26 06:20:00;;;;;;;8.63;6.97;;;4.30;60.40;;;;;;5017014;28;20037;-75
2023/11/26 06:22:26;;;;;;;7.95;6.65;;;4.30;60.90;;;;;;5023526;28;20326;-74
2023/11/26 06:24:53;;;;;;;13.65;6.57;;;4.30;60.40;;;;;;5031356;28;20029;-75
2023/11/26 06:27:19;;;;;;;10.27;6.43;;;4.30;60.40;;;;;;5029087;28;20408;-75
2023/11/26 06:29:45;;;;;;;8.65;6.03;;;4.30;60.40;;;;;;5025785;28;20029;-76
2023/11/26 06:32:11;;;;;;;9.85;6.85;;;4.30;60.40;;;;;;5026104;28;20488;-76
2023/11/26 06:34:37;;;;;;;9.07;6.50;;;4.30;60.40;;;;;;5023453;28;20481;-75
2023/11/26 06:37:04;;;;;;;8.77;6.32;;;4.30;60.40;;;;;;5023163;28;20026;-75
2023/11/26 06:39:30;;;;;;;9.57;7.75;;;4.40;60.60;;;;;;5029527;28;20082;-75
2023/11/26 06:41:56;;;;;;;9.50;6.75;;;4.40;60.60;;;;;;5024574;28;20187;-75
2023/11/26 06:44:22;;;;;;;10.45;6.72;;;4.40;60.60;;;;;;5026310;28;20205;-76
2023/11/26 06:46:52;;;;;;;10.65;6.75;;;4.40;61.10;;;;;;5024229;28;20025;-75
2023/11/26 06:49:18;;;;;;;10.15;7.47;;;4.40;60.60;;;;;;5027719;28;20072;-74
2023/11/26 06:51:44;;;;;;;12.30;7.40;;;4.40;60.60;;;;;;5028950;28;20044;-75
2023/11/26 06:54:11;;;;;;;8.13;6.45;;;4.40;60.60;;;;;;5026070;28;20105;-74
2023/11/26 06:56:36;;;;;;;11.10;6.47;;;4.40;60.60;;;;;;5024146;28;20021;-75
2023/11/26 06:59:03;;;;;;;8.90;6.72;;;4.50;60.80;;;;;;5028844;28;20064;-75
2023/11/26 07:01:31;;;;;;;10.43;6.43;;;4.50;60.80;;;;;;5029981;28;20021;-75
2023/11/26 07:03:57;;;;;;;11.75;6.50;;;4.50;60.80;;;;;;5026090;28;20265;-75
2023/11/26 07:06:22;;;;;;;8.95;6.93;;;4.50;60.80;;;;;;5012806;28;20247;-74
2023/11/26 07:08:49;;;;;;;11.23;6.72;;;4.50;60.80;;;;;;5033570;28;20025;-75
2023/11/26 07:11:19;;;;;;;8.07;5.70;;;4.50;60.80;;;;;;5023378;28;20034;-75
2023/11/26 07:13:50;;;;;;;10.77;6.30;;;4.50;60.80;;;;;;5028058;28;20028;-76
2023/11/26 07:16:17;;;;;;;9.57;6.53;;;4.60;61.00;;;;;;5023840;28;20025;-76
2023/11/26 07:18:44;;;;;;;9.10;6.28;;;4.60;60.90;;;;;;5029563;28;20278;-75
2023/11/26 07:21:10;;;;;;;8.63;6.45;;;4.60;61.00;;;;;;5022909;28;20508;-75
2023/11/26 07:23:36;;;;;;;12.52;6.60;;;4.60;61.00;;;;;;5017438;28;20036;-75
2023/11/26 07:26:11;;;;;;;7.88;5.18;;;4.60;61.00;;;;;;5020793;28;20538;-75
2023/11/26 07:28:37;;;;;;;9.60;5.88;;;4.60;61.00;;;;;;5019075;28;20271;-74
2023/11/26 07:31:03;;;;;;;9.32;5.85;;;4.60;61.00;;;;;;5024172;28;20119;-75
2023/11/26 07:33:30;;;;;;;9.90;6.10;;;4.60;61.00;;;;;;5021866;28;20021;-75
2023/11/26 07:35:57;;;;;;;6.63;5.45;;;4.70;61.20;;;;;;5038363;28;20040;-76
2023/11/26 07:38:23;;;;;;;8.05;5.32;;;4.60;61.10;;;;;;5025200;28;20025;-75
2023/11/26 07:40:50;;;;;;;7.95;5.30;;;4.70;61.80;;;;;;5051483;28;20080;-75
2023/11/26 07:43:15;;;;;;;7.03;4.97;;;4.70;61.30;;;;;;5036534;28;20714;-75
2023/11/26 07:45:42;;;;;;;6.30;4.32;;;4.70;61.30;;;;;;5041489;28;20033;-74
2023/11/26 07:48:08;;;;;;;9.93;5.25;;;4.70;61.30;;;;;;5020498;28;20524;-75
2023/11/26 07:50:34;;;;;;;8.52;4.28;;;4.70;61.30;;;;;;5018882;28;20037;-75
2023/11/26 07:53:00;;;;;;;8.55;4.75;;;4.70;61.40;;;;;;5052090;28;20057;-75
2023/11/26 07:55:26;;;;;;;6.38;4.93;;;4.70;61.40;;;;;;5020281;28;20437;-75
2023/11/26 07:57:52;;;;;;;11.18;5.00;;;4.70;61.40;;;;;;5015535;28;20444;-75
2023/11/26 08:00:21;;;;;;;6.05;4.60;;;4.80;61.60;;;;;;5019573;28;20052;-75
2023/11/26 08:02:47;;;;;;;8.30;4.20;;;4.80;61.60;;;;;;5017646;28;20029;-75
2023/11/26 08:05:18;;;;;;;5.70;4.22;;;4.80;61.60;;;;;;5020880;28;20298;-75
2023/11/26 08:07:45;;;;;;;9.07;5.53;;;4.80;61.60;;;;;;5019236;28;20044;-76
2023/11/26 08:10:18;;;;;;;5.55;4.57;;;4.80;61.60;;;;;;5026146;28;20048;-75
2023/11/26 08:12:45;;;;;;;9.02;5.18;;;4.80;61.60;;;;;;5014498;28;20631;-75
2023/11/26 08:15:15;;;;;;;9.68;4.82;;;4.80;61.60;;;;;;5022712;28;20029;-76
2023/11/26 08:17:41;;;;;;;8.18;5.30;;;4.90;61.70;;;;;;5019478;28;20047;-77
2023/11/26 08:20:10;;;;;;;5.20;4.70;;;4.90;61.70;;;;;;5020917;28;20029;-75
2023/11/26 08:22:40;;;;;;;9.25;4.57;;;4.90;61.70;;;;;;5023631;28;20373;-76
2023/11/26 08:25:12;;;;;;;6.82;5.20;;;4.90;61.80;;;;;;5019657;28;20033;-76
2023/11/26 08:27:44;;;;;;;6.55;4.65;;;5.00;61.90;;;;;;5028147;28;20533;-77
2023/11/26 08:30:30;;;;;;;6.80;4.93;;;5.00;62.00;;;;;;5013507;28;20420;-77
2023/11/26 08:32:58;;;;;;;12.25;4.85;;;5.00;62.00;;;;;;5057575;28;20037;-77
2023/11/26 08:35:29;;;;;;;17.75;6.30;;;5.00;62.00;;;;;;5013957;28;20033;-77
2023/11/26 08:37:56;;;;;;;13.65;6.95;;;5.00;62.20;;;;;;5023073;28;20532;-78
2023/11/26 08:40:23;;;;;;;16.80;6.78;;;5.10;62.50;;;;;;5020637;28;20084;-77
2023/11/26 08:42:49;;;;;;;16.60;6.70;;;5.10;62.50;;;;;;5031199;28;20029;-77
2023/11/26 08:45:15;;;;;;;17.02;7.40;;;5.20;62.80;;;;;;5020650;28;20517;-77
2023/11/26 08:47:47;;;;;;;18.42;7.95;;;5.20;63.20;;;;;;5020907;28;21240;-77
2023/11/26 08:50:13;;;;;;;98.05;70.55;;;5.40;63.60;;;;;;5012418;28;20767;-79
2023/11/26 08:52:39;;;;;;;24.50;14.18;;;5.50;63.80;;;;;;5021405;28;20026;-78
2023/11/26 08:55:06;;;;;;;34.35;24.75;;;5.60;64.00;;;;;;5021564;28;20060;-78
2023/11/26 08:57:32;;;;;;;20.25;15.80;;;5.60;64.00;;;;;;5024862;28;20031;-78
2023/11/26 08:59:58;;;;;;;16.67;12.23;;;5.60;64.00;;;;;;5024577;28;20045;-78
2023/11/26 09:02:25;;;;;;;15.65;10.20;;;5.60;64.10;;;;;;5023857;28;20075;-78
2023/11/26 09:04:51;;;;;;;15.73;9.10;;;5.60;64.10;;;;;;5053094;28;20982;-77
2023/11/26 09:07:18;;;;;;;13.55;8.45;;;5.60;64.10;;;;;;5057719;28;20033;-78
2023/11/26 09:09:44;;;;;;;12.75;8.27;;;5.60;64.50;;;;;;5021345;28;20206;-77
2023/11/26 09:12:10;;;;;;;13.50;8.23;;;5.60;64.30;;;;;;5020675;28;20541;-77
2023/11/26 09:14:36;;;;;;;11.98;8.05;;;5.60;64.30;;;;;;5018816;28;20550;-77
2023/11/26 09:17:06;;;;;;;13.75;6.95;;;5.50;64.20;;;;;;5021306;28;20156;-77
2023/11/26 09:19:33;;;;;;;14.95;7.15;;;5.50;64.20;;;;;;5027906;28;20254;-76
2023/11/26 09:22:02;;;;;;;8.32;7.45;;;5.50;64.30;;;;;;5021957;28;20295;-77
2023/11/26 09:24:29;;;;;;;10.02;7.55;;;5.50;64.30;;;;;;5023593;28;20136;-78
2023/11/26 09:26:55;;;;;;;11.10;7.88;;;5.50;64.40;;;;;;5025461;28;20300;-78
2023/11/26 09:29:21;;;;;;;12.27;8.77;;;5.60;64.60;;;;;;5024675;28;20135;-77
2023/11/26 09:31:47;;;;;;;12.13;8.68;;;5.60;64.70;;;;;;5031392;28;20028;-78
2023/11/26 09:34:13;;;;;;;9.45;8.35;;;5.60;64.70;;;;;;5026990;28;20359;-79
2023/11/26 09:36:42;;;;;;;11.27;8.63;;;5.60;64.80;;;;;;5024874;28;20068;-79
2023/11/26 09:39:08;;;;;;;13.38;9.57;;;5.60;65.00;;;;;;5023019;28;20037;-78
2023/11/26 09:41:34;;;;;;;18.08;9.93;;;5.60;65.00;;;;;;5026260;28;20049;-77
2023/11/26 09:44:00;;;;;;;15.07;10.43;;;5.60;65.10;;;;;;5015872;28;20040;-78
2023/11/26 09:46:30;;;;;;;12.73;9.18;;;5.60;65.20;;;;;;5015308;28;20118;-77
2023/11/26 09:48:57;;;;;;;14.02;9.60;;;5.70;65.40;;;;;;5027751;28;20376;-76
2023/11/26 09:51:24;;;;;;;13.73;9.98;;;5.70;65.50;;;;;;5024898;28;20040;-77
2023/11/26 09:53:53;;;;;;;15.07;9.90;;;5.70;65.60;;;;;;5019517;28;20045;-78
2023/11/26 09:56:19;;;;;;;13.50;10.07;;;5.70;65.70;;;;;;5004567;28;20107;-78
2023/11/26 09:58:45;;;;;;;17.17;9.13;;;5.70;65.70;;;;;;5019864;28;20060;-78
2023/11/26 10:01:11;;;;;;;13.68;9.80;;;5.80;65.90;;;;;;5018336;28;20132;-78
2023/11/26 10:03:57;;;;;;;13.35;9.77;;;5.80;66.00;;;;;;5019464;28;20125;-78
2023/11/26 10:06:23;;;;;;;16.95;9.93;;;5.80;66.20;;;;;;5030197;28;20033;-77
2023/11/26 10:08:49;;;;;;;10.75;9.35;;;5.80;66.10;;;;;;5011797;28;21888;-78
2023/11/26 10:11:23;;;;;;;11.52;9.60;;;5.90;66.40;;;;;;5023105;28;20129;-78
2023/11/26 10:13:53;;;;;;;11.73;9.90;;;5.80;66.30;;;;;;5016554;28;20231;-78
2023/11/26 10:16:32;;;;;;;16.98;14.15;;;5.90;66.50;;;;;;5032837;28;20033;-77
2023/11/26 10:19:03;;;;;;;12.02;9.85;;;5.90;66.60;;;;;;5024686;28;20041;-77
2023/11/26 10:21:30;;;;;;;12.27;10.23;;;5.90;66.70;;;;;;5016912;28;20029;-77
2023/11/26 10:24:03;;;;;;;15.65;10.95;;;6.00;66.90;;;;;;5020604;28;20491;-77
2023/11/26 10:26:29;;;;;;;11.27;10.07;;;6.00;66.90;;;;;;5053808;28;20033;-77
2023/11/26 10:29:03;;;;;;;11.80;9.55;;;6.00;67.00;;;;;;5022411;28;20064;-76
2023/11/26 10:31:29;;;;;;;17.67;10.07;;;6.00;67.10;;;;;;5015347;28;20515;-76
2023/11/26 10:34:14;;;;;;;13.05;11.20;;;6.00;67.10;;;;;;5022322;28;20029;-77
2023/11/26 10:36:41;;;;;;;13.32;10.52;;;6.10;67.40;;;;;;5033640;28;20033;-76
2023/11/26 10:39:09;;;;;;;14.80;10.23;;;6.10;67.40;;;;;;5023570;28;20025;-76
2023/11/26 10:41:37;;;;;;;13.45;11.07;;;6.10;67.40;;;;;;5052067;28;20050;-77
2023/11/26 10:44:08;;;;;;;11.43;10.05;;;6.10;67.50;;;;;;5018650;28;20584;-77
2023/11/26 10:46:35;;;;;;;11.68;10.45;;;6.20;67.70;;;;;;5017504;28;20112;-77
2023/11/26 10:49:12;;;;;;;15.50;11.32;;;6.20;67.70;;;;;;5051769;28;20506;-77
2023/11/26 10:51:41;;;;;;;17.00;11.00;;;6.20;67.80;;;;;;5029592;28;20111;-76
2023/11/26 10:54:24;;;;;;;14.02;11.63;;;6.30;68.00;;;;;;5037140;28;20471;-76
2023/11/26 10:56:54;;;;;;;12.00;10.43;;;6.30;68.00;;;;;;5024038;28;20061;-76
2023/11/26 10:59:22;;;;;;;17.88;12.88;;;6.30;68.00;;;;;;5023751;28;20041;-77
2023/11/26 11:01:48;;;;;;;14.35;11.43;;;6.40;68.20;;;;;;5021038;28;20095;-75
2023/11/26 11:04:15;;;;;;;16.05;12.32;;;6.40;68.20;;;;;;5029170;28;20051;-76
2023/11/26 11:06:43;;;;;;;14.25;12.25;;;6.50;68.50;;;;;;5050390;28;20121;-77
2023/11/26 11:09:13;;;;;;;14.95;12.35;;;6.50;68.50;;;;;;5025301;28;20045;-77
2023/11/26 11:11:59;;;;;;;13.57;12.18;;;6.50;68.50;;;;;;5020800;28;20032;-78
2023/11/26 11:14:27;;;;;;;17.42;12.48;;;6.50;68.60;;;;;;5022270;28;20025;-77
2023/11/26 11:16:53;;;;;;;15.18;12.85;;;6.60;68.80;;;;;;5023379;28;20114;-78
2023/11/26 11:19:49;;;;;;;18.38;12.60;;;6.60;68.80;;;;;;5021131;28;20040;-78
2023/11/26 11:22:16;;;;;;;16.27;12.98;;;6.60;68.90;;;;;;5019416;28;20439;-77
2023/11/26 11:24:43;;;;;;;17.42;13.30;;;6.70;69.00;;;;;;5019142;28;20021;-76
2023/11/26 11:27:09;;;;;;;17.17;12.45;;;6.70;69.00;;;;;;5012173;28;20014;-77
2023/11/26 11:29:35;;;;;;;12.85;10.88;;;6.80;69.20;;;;;;5014948;28;20068;-78
2023/11/26 11:32:01;;;;;;;14.68;11.77;;;6.80;69.30;;;;;;5047498;28;20436;-78
2023/11/26 11:34:29;;;;;;;14.15;12.18;;;6.80;69.30;;;;;;5021433;28;20036;-77
2023/11/26 11:36:57;;;;;;;14.93;11.20;;;6.90;69.50;;;;;;5024156;28;20574;-76
2023/11/26 11:39:46;;;;;;;12.88;11.65;;;6.90;69.60;;;;;;5019907;28;20187;-76
2023/11/26 11:42:14;;;;;;;16.60;12.38;;;6.90;69.70;;;;;;5022050;28;20054;-76
2023/11/26 11:44:43;;;;;;;14.25;12.00;;;7.00;69.80;;;;;;5025898;28;20044;-76
2023/11/26 11:47:11;;;;;;;14.57;11.90;;;7.00;69.80;;;;;;5012961;28;20033;-76
2023/11/26 11:49:51;;;;;;;12.75;11.55;;;7.10;69.90;;;;;;5032778;28;20550;-76
2023/11/26 11:52:17;;;;;;;12.55;11.07;;;7.20;70.10;;;;;;5028295;28;20045;-76
2023/11/26 11:54:58;;;;;;;17.67;12.50;;;7.30;70.70;;;;;;5026195;28;20032;-76
2023/11/26 11:57:38;;;;;;;14.55;10.98;;;7.40;70.40;;;;;;5020863;28;20049;-75
2023/11/26 12:00:08;;;;;;;16.35;12.88;;;7.40;70.20;;;;;;5020267;28;20033;-77
2023/11/26 12:02:35;;;;;;;12.90;11.60;;;7.50;70.30;;;;;;5022567;28;20051;-77
2023/11/26 12:05:02;;;;;;;15.27;12.07;;;7.60;70.40;;;;;;5045188;28;20089;-76
2023/11/26 12:07:31;;;;;;;12.82;11.60;;;7.70;70.50;;;;;;5021081;28;20064;-75
2023/11/26 12:10:01;;;;;;;13.27;11.95;;;7.70;70.50;;;;;;5027564;28;20040;-76
2023/11/26 12:12:27;;;;;;;13.38;11.95;;;7.80;70.60;;;;;;5017805;28;20029;-76
2023/11/26 12:14:54;;;;;;;21.15;13.18;;;7.80;70.50;;;;;;5023728;28;20139;-76
2023/11/26 12:17:21;;;;;;;14.55;12.02;;;7.80;70.60;;;;;;5021047;28;20392;-77
2023/11/26 12:19:48;;;;;;;27.30;11.13;;;7.80;70.60;;;;;;5025534;28;20037;-76
2023/11/26 12:22:14;;;;;;;12.95;11.02;;;7.90;70.80;;;;;;5021774;28;20491;-77
2023/11/26 12:24:41;;;;;;;17.23;10.70;;;7.90;70.90;;;;;;5022405;28;20029;-77
2023/11/26 12:27:19;;;;;;;13.02;11.27;;;8.00;71.20;;;;;;5017980;28;20029;-76
2023/11/26 12:29:45;;;;;;;11.63;10.43;;;8.00;71.20;;;;;;5018062;28;20037;-75
2023/11/26 12:32:11;;;;;;;12.23;11.00;;;8.10;71.30;;;;;;5028742;28;20029;-76
2023/11/26 12:34:39;;;;;;;11.57;10.25;;;8.10;71.30;;;;;;5016218;28;20508;-74
2023/11/26 12:37:12;;;;;;;17.15;10.95;;;8.20;71.50;;;;;;5044299;28;20025;-75
2023/11/26 12:39:41;;;;;;;13.20;11.40;;;8.20;71.50;;;;;;5001840;28;20029;-75
2023/11/26 12:42:08;;;;;;;12.85;11.52;;;8.20;71.40;;;;;;5023678;28;20125;-76
2023/11/26 12:44:34;;;;;;;11.98;10.65;;;8.30;71.60;;;;;;5023729;28;20118;-78
2023/11/26 12:47:12;;;;;;;13.63;10.95;;;8.40;71.70;;;;;;5017534;28;20038;-77
2023/11/26 12:49:39;;;;;;;13.23;10.65;;;8.40;71.70;;;;;;5016438;28;20128;-77
2023/11/26 12:52:10;;;;;;;14.82;11.85;;;8.40;71.60;;;;;;5035384;28;20036;-75